Time;durP1;ratioP1;P1;durP2;ratioP2;P2;SDS_P1;SDS_P2;PMS_P1;PMS_P2;Temp;Humidity;BMP_temperature;BMP_pressure;BME280_temperature;BME280_humidity;BME280_pressure;Samples;Min_cycle;Max_cycle;Signal;HPM_P1;HPM_P2
2022/08/23 00:01:28;;;;;;;1.40;0.80;;;22.60;99.90;;;;;;5011033;28;20040;-85
2022/08/23 00:03:56;;;;;;;1.45;0.90;;;22.60;99.90;;;;;;4986385;28;20097;-86
2022/08/23 00:06:23;;;;;;;0.90;0.60;;;22.60;99.90;;;;;;5005393;28;21295;-85
2022/08/23 00:08:52;;;;;;;2.05;0.60;;;22.60;99.90;;;;;;5023607;28;20040;-85
2022/08/23 00:11:40;;;;;;;2.22;0.90;;;22.60;99.90;;;;;;5020286;28;20079;-86
2022/08/23 00:14:12;;;;;;;0.82;0.68;;;22.60;99.90;;;;;;4939435;28;20052;-85
2022/08/23 00:16:39;;;;;;;1.52;0.82;;;22.60;99.90;;;;;;5003879;28;20059;-85
2022/08/23 00:19:07;;;;;;;1.15;0.70;;;22.60;99.90;;;;;;5007064;28;20035;-86
2022/08/23 00:21:35;;;;;;;1.42;0.88;;;22.60;99.90;;;;;;4938580;28;20052;-86
2022/08/23 00:24:05;;;;;;;1.85;1.45;;;22.60;99.90;;;;;;5004839;28;20438;-86
2022/08/23 00:26:51;;;;;;;1.42;1.17;;;22.60;99.90;;;;;;4943349;28;20044;-86
2022/08/23 00:29:17;;;;;;;1.17;0.93;;;22.60;99.90;;;;;;4939391;28;20097;-85
2022/08/23 00:31:48;;;;;;;1.88;0.77;;;22.60;99.90;;;;;;5019877;28;20098;-86
2022/08/23 00:34:15;;;;;;;1.15;0.80;;;22.60;99.90;;;;;;4940561;28;20044;-86
2022/08/23 00:36:41;;;;;;;2.08;0.90;;;22.60;99.90;;;;;;5002655;28;20044;-86
2022/08/23 00:39:07;;;;;;;2.88;1.23;;;22.60;99.90;;;;;;5003494;28;20043;-86
2022/08/23 00:41:34;;;;;;;1.52;1.02;;;22.60;99.90;;;;;;5018992;28;20040;-86
2022/08/23 00:49:46;;;;;;;1.48;1.38;;;22.60;99.90;;;;;;4936143;28;20043;-86
2022/08/23 00:52:37;;;;;;;3.22;1.20;;;22.50;99.90;;;;;;5005657;28;20040;-86
2022/08/23 00:55:03;;;;;;;3.47;0.93;;;22.50;99.90;;;;;;5001692;28;20167;-85
2022/08/23 00:57:30;;;;;;;2.33;0.82;;;22.60;99.90;;;;;;4935050;28;20048;-86
2022/08/23 00:59:56;;;;;;;4.00;1.10;;;22.60;99.90;;;;;;5003316;28;20105;-86
2022/08/23 01:02:23;;;;;;;1.00;0.70;;;22.60;99.90;;;;;;5010238;28;20109;-86
2022/08/23 01:04:55;;;;;;;1.92;0.98;;;22.60;99.90;;;;;;4937335;28;20609;-85
2022/08/23 01:07:49;;;;;;;1.00;0.85;;;22.60;99.90;;;;;;5003447;28;20064;-85
2022/08/23 01:10:38;;;;;;;1.55;1.02;;;22.50;99.90;;;;;;4938121;28;20070;-86
2022/08/23 01:13:14;;;;;;;2.78;1.17;;;22.50;99.90;;;;;;5012206;28;20038;-85
2022/08/23 01:15:47;;;;;;;5.18;1.52;;;22.40;99.90;;;;;;5024724;28;20036;-86
2022/08/23 01:18:18;;;;;;;1.95;1.38;;;22.40;99.90;;;;;;5025385;28;20055;-85
2022/08/23 01:21:12;;;;;;;4.05;1.38;;;22.50;99.90;;;;;;4956310;28;20557;-86
2022/08/23 01:23:43;;;;;;;2.30;0.93;;;22.50;99.90;;;;;;5027451;28;20575;-85
2022/08/23 01:26:10;;;;;;;1.55;1.17;;;22.50;99.90;;;;;;4938520;28;20055;-85
2022/08/23 01:28:39;;;;;;;2.53;1.00;;;22.50;99.90;;;;;;5001240;28;20131;-85
2022/08/23 01:31:06;;;;;;;1.98;0.98;;;22.50;99.90;;;;;;5018577;28;20564;-84
2022/08/23 01:33:36;;;;;;;2.33;1.27;;;22.50;99.90;;;;;;5003032;28;20044;-85
2022/08/23 01:36:03;;;;;;;1.02;0.80;;;22.50;99.90;;;;;;5000648;28;20047;-85
2022/08/23 01:38:29;;;;;;;3.05;1.10;;;22.50;99.90;;;;;;5016034;28;20427;-85
2022/08/23 01:40:54;;;;;;;2.35;1.10;;;22.40;99.90;;;;;;5005884;28;20060;-85
2022/08/23 01:43:22;;;;;;;1.77;1.00;;;22.40;99.90;;;;;;5001794;28;20044;-86
2022/08/23 01:45:50;;;;;;;2.50;1.50;;;22.30;99.90;;;;;;5002410;28;20082;-84
2022/08/23 01:48:17;;;;;;;1.08;0.90;;;22.30;99.90;;;;;;5006698;28;20052;-85
2022/08/23 01:50:44;;;;;;;3.50;1.20;;;22.30;99.90;;;;;;5016767;28;20044;-85
2022/08/23 01:53:10;;;;;;;1.98;1.10;;;22.20;99.90;;;;;;5000175;28;20055;-85
2022/08/23 01:55:38;;;;;;;2.60;1.00;;;22.30;99.90;;;;;;5000116;28;20075;-85
2022/08/23 01:58:06;;;;;;;5.10;1.63;;;22.30;99.90;;;;;;4934836;28;20052;-85
2022/08/23 02:00:36;;;;;;;2.20;1.38;;;22.20;99.90;;;;;;5001925;28;20567;-86
2022/08/23 02:03:03;;;;;;;2.58;1.23;;;22.20;99.90;;;;;;5008460;28;20997;-85
2022/08/23 02:05:30;;;;;;;2.83;1.70;;;22.20;99.90;;;;;;4999680;28;20138;-85
2022/08/23 02:08:59;;;;;;;2.40;1.20;;;22.20;99.90;;;;;;5016521;28;20067;-86
2022/08/23 02:10:42;;;;;;;1.92;1.58;;;22.30;99.90;;;;;;4935624;28;20166;-85
2022/08/23 02:13:08;;;;;;;1.95;1.20;;;22.20;99.90;;;;;;4935588;28;20129;-86
2022/08/23 02:15:33;;;;;;;1.92;1.60;;;22.20;99.90;;;;;;4999340;28;20154;-85
2022/08/23 02:17:59;;;;;;;1.80;1.05;;;22.10;99.90;;;;;;5001830;28;20054;-85
2022/08/23 02:20:25;;;;;;;1.98;1.10;;;22.10;99.90;;;;;;4997008;28;20040;-85
2022/08/23 02:22:51;;;;;;;1.73;1.20;;;22.10;99.90;;;;;;4999043;28;20044;-86
2022/08/23 02:25:16;;;;;;;1.88;1.20;;;22.10;99.90;;;;;;5018064;28;20135;-85
2022/08/23 02:27:42;;;;;;;1.75;1.33;;;22.10;99.90;;;;;;4937867;28;20040;-86
2022/08/23 02:30:08;;;;;;;1.42;1.10;;;22.10;99.90;;;;;;5004522;28;20139;-86
2022/08/23 02:32:35;;;;;;;3.17;1.33;;;22.10;99.90;;;;;;4938331;28;20178;-86
2022/08/23 02:35:01;;;;;;;1.63;1.30;;;22.10;99.90;;;;;;5019144;28;20054;-86
2022/08/23 02:37:26;;;;;;;3.25;1.58;;;22.10;99.90;;;;;;5001667;28;20051;-86
2022/08/23 02:39:52;;;;;;;3.15;1.30;;;22.00;99.90;;;;;;5001194;28;20201;-86
2022/08/23 02:42:18;;;;;;;1.75;1.20;;;22.00;99.90;;;;;;5009555;28;20369;-86
2022/08/23 02:44:45;;;;;;;1.70;1.17;;;22.00;99.90;;;;;;4938489;28;20059;-86
2022/08/23 02:47:11;;;;;;;1.40;1.00;;;22.00;99.90;;;;;;4937612;28;20055;-86
2022/08/23 02:49:37;;;;;;;1.83;1.30;;;22.00;99.90;;;;;;5003919;28;20482;-86
2022/08/23 02:52:05;;;;;;;6.47;1.65;;;21.90;99.90;;;;;;4998207;28;20044;-86
2022/08/23 02:54:33;;;;;;;5.05;1.02;;;21.90;99.90;;;;;;5002505;28;20048;-86
2022/08/23 02:57:02;;;;;;;2.15;1.55;;;21.90;99.90;;;;;;5001277;28;20664;-85
2022/08/23 02:59:28;;;;;;;2.05;1.17;;;21.80;99.90;;;;;;4999693;28;20052;-86
2022/08/23 03:01:56;;;;;;;3.88;1.40;;;21.80;99.90;;;;;;4999484;28;20036;-86
2022/08/23 03:04:22;;;;;;;2.53;1.13;;;21.80;99.90;;;;;;5006596;28;20044;-85
2022/08/23 03:06:48;;;;;;;2.65;1.30;;;21.70;99.90;;;;;;4935770;28;20160;-86
2022/08/23 03:09:13;;;;;;;1.73;1.00;;;21.70;99.90;;;;;;5015425;28;20167;-86
2022/08/23 03:11:44;;;;;;;1.67;1.40;;;21.70;99.90;;;;;;5006113;28;20526;-86
2022/08/23 03:14:10;;;;;;;1.88;1.58;;;21.70;99.90;;;;;;5000008;28;20110;-86
2022/08/23 03:16:36;;;;;;;2.90;1.98;;;21.70;99.90;;;;;;4999589;28;20690;-85
2022/08/23 03:19:03;;;;;;;3.20;2.45;;;21.60;99.90;;;;;;4998127;28;20601;-85
2022/08/23 03:21:28;;;;;;;3.65;1.90;;;21.70;99.90;;;;;;4936382;28;20039;-86
2022/08/23 03:23:54;;;;;;;2.92;2.03;;;21.60;99.90;;;;;;4933174;28;20040;-86
2022/08/23 03:26:20;;;;;;;2.25;1.58;;;21.60;99.90;;;;;;5016180;28;20052;-85
2022/08/23 03:28:46;;;;;;;2.78;1.80;;;21.60;99.90;;;;;;5015795;28;20078;-85
2022/08/23 03:31:13;;;;;;;3.35;1.70;;;21.60;99.90;;;;;;4999158;28;20590;-86
2022/08/23 03:33:40;;;;;;;3.40;2.22;;;21.60;99.90;;;;;;5018651;28;20071;-85
2022/08/23 03:36:08;;;;;;;3.83;1.48;;;21.60;99.90;;;;;;4933923;28;20082;-86
2022/08/23 03:38:38;;;;;;;2.05;1.42;;;21.50;99.90;;;;;;5019278;28;20927;-86
2022/08/23 03:41:05;;;;;;;5.05;1.48;;;21.50;99.90;;;;;;4938607;28;20518;-86
2022/08/23 03:43:31;;;;;;;4.00;1.70;;;21.50;99.90;;;;;;5000838;28;20051;-85
2022/08/23 03:45:59;;;;;;;1.75;1.30;;;21.50;99.90;;;;;;5000484;28;20530;-85
2022/08/23 03:48:25;;;;;;;5.00;1.50;;;21.50;99.90;;;;;;5018491;28;20090;-85
2022/08/23 03:50:51;;;;;;;3.55;1.48;;;21.50;99.90;;;;;;4999727;28;20407;-85
2022/08/23 03:53:17;;;;;;;2.58;1.15;;;21.50;99.90;;;;;;5014708;28;20043;-86
2022/08/23 03:55:43;;;;;;;2.05;1.25;;;21.40;99.90;;;;;;4935064;28;20091;-87
2022/08/23 03:58:10;;;;;;;2.22;1.50;;;21.40;99.90;;;;;;4928860;28;20055;-86
2022/08/23 04:00:36;;;;;;;1.90;1.38;;;21.50;99.90;;;;;;4996323;28;20478;-87
2022/08/23 04:03:02;;;;;;;2.38;1.52;;;21.40;99.90;;;;;;4930170;28;20115;-87
2022/08/23 04:05:28;;;;;;;1.77;1.15;;;21.40;99.90;;;;;;4994073;28;20147;-87
2022/08/23 04:07:54;;;;;;;4.53;1.42;;;21.50;99.90;;;;;;4993626;28;20515;-87
2022/08/23 04:10:20;;;;;;;2.30;1.45;;;21.50;99.90;;;;;;4996093;28;20102;-87
2022/08/23 04:12:46;;;;;;;2.17;1.73;;;21.50;99.90;;;;;;5011375;28;20044;-87
2022/08/23 04:15:12;;;;;;;1.38;1.10;;;21.50;99.90;;;;;;5009880;28;20052;-87
2022/08/23 04:17:38;;;;;;;2.58;1.50;;;21.40;99.90;;;;;;5000733;28;20915;-87
2022/08/23 04:20:05;;;;;;;7.20;1.70;;;21.50;99.90;;;;;;4936259;28;20044;-87
2022/08/23 04:22:32;;;;;;;2.90;1.80;;;21.40;99.90;;;;;;5018450;28;20052;-87
2022/08/23 04:24:59;;;;;;;2.60;1.42;;;21.40;99.90;;;;;;5003678;28;20047;-87
2022/08/23 04:27:24;;;;;;;2.47;1.45;;;21.40;99.90;;;;;;4938255;28;20054;-88
2022/08/23 04:29:50;;;;;;;2.88;1.88;;;21.50;99.90;;;;;;4997784;28;20052;-89
2022/08/23 04:32:16;;;;;;;3.22;1.33;;;21.50;99.90;;;;;;4936998;28;20078;-89
2022/08/23 04:34:42;;;;;;;2.40;1.42;;;21.50;99.90;;;;;;5016536;28;20095;-89
2022/08/23 04:37:08;;;;;;;3.60;1.45;;;21.50;99.90;;;;;;5008189;28;20534;-88
2022/08/23 04:42:16;;;;;;;4.78;1.63;;;21.50;99.90;;;;;;4999513;28;20036;-89
2022/08/23 04:42:22;;;;;;;2.50;1.50;;;21.50;99.90;;;;;;4937827;28;20059;-89
2022/08/23 04:44:49;;;;;;;2.38;1.50;;;21.50;99.90;;;;;;5005443;28;20123;-88
2022/08/23 04:47:14;;;;;;;1.83;1.27;;;21.40;99.90;;;;;;5012937;28;20089;-87
2022/08/23 04:49:40;;;;;;;2.55;1.40;;;21.40;99.90;;;;;;4931049;28;20815;-88
2022/08/23 04:52:06;;;;;;;3.00;1.20;;;21.40;99.90;;;;;;5002123;28;20540;-85
2022/08/23 04:54:32;;;;;;;2.20;1.65;;;21.50;99.90;;;;;;4999455;28;20048;-87
2022/08/23 04:56:58;;;;;;;4.07;1.60;;;21.40;99.90;;;;;;5004680;28;20036;-87
2022/08/23 04:59:23;;;;;;;4.20;1.50;;;21.40;99.90;;;;;;4998256;28;20063;-87
2022/08/23 05:01:50;;;;;;;2.03;1.38;;;21.40;99.90;;;;;;5000057;28;20604;-87
2022/08/23 05:04:16;;;;;;;2.72;1.67;;;21.40;99.90;;;;;;4934162;28;20047;-86
2022/08/23 05:06:44;;;;;;;2.38;1.58;;;21.30;99.90;;;;;;4999047;28;20063;-86
2022/08/23 05:09:10;;;;;;;3.40;1.38;;;21.30;99.90;;;;;;5001083;28;20507;-86
2022/08/23 05:11:35;;;;;;;2.28;1.40;;;21.30;99.90;;;;;;4999632;28;20044;-88
2022/08/23 05:14:02;;;;;;;2.60;1.50;;;21.30;99.90;;;;;;5000381;28;20052;-86
2022/08/23 05:16:28;;;;;;;1.52;1.00;;;21.30;99.90;;;;;;4934243;28;20040;-88
2022/08/23 05:18:54;;;;;;;2.40;1.13;;;21.30;99.90;;;;;;5005390;28;20423;-85
2022/08/23 05:21:21;;;;;;;2.78;1.38;;;21.30;99.90;;;;;;5018263;28;20040;-85
2022/08/23 05:23:47;;;;;;;3.38;1.50;;;21.30;99.90;;;;;;4999625;28;20061;-84
2022/08/23 05:26:13;;;;;;;2.85;1.42;;;21.40;99.90;;;;;;4938801;28;20051;-84
2022/08/23 05:28:44;;;;;;;3.60;1.63;;;21.50;99.90;;;;;;5001151;28;20489;-84
2022/08/23 05:31:22;;;;;;;3.33;1.70;;;21.50;99.90;;;;;;5014847;28;20705;-85
2022/08/23 05:33:48;;;;;;;2.15;1.35;;;21.60;99.90;;;;;;4932084;28;20541;-84
2022/08/23 05:36:16;;;;;;;1.63;1.20;;;21.60;99.90;;;;;;5006324;28;20068;-85
2022/08/23 05:38:42;;;;;;;1.92;1.15;;;21.70;99.90;;;;;;5001564;28;20075;-85
2022/08/23 05:41:09;;;;;;;2.25;1.23;;;21.70;99.90;;;;;;4939787;28;20058;-84
2022/08/23 05:43:36;;;;;;;2.90;1.67;;;21.80;99.90;;;;;;4937098;28;20131;-84
2022/08/23 05:46:11;;;;;;;2.00;1.38;;;21.80;99.90;;;;;;5001188;28;20048;-84
2022/08/23 05:48:38;;;;;;;2.25;1.50;;;21.80;99.90;;;;;;4934129;28;20557;-84
2022/08/23 05:51:12;;;;;;;3.70;2.15;;;21.80;99.90;;;;;;4998210;28;20040;-85
2022/08/23 05:53:39;;;;;;;2.03;1.25;;;21.90;99.90;;;;;;4998351;28;20928;-85
2022/08/23 05:56:13;;;;;;;2.58;1.73;;;22.00;99.90;;;;;;4997959;28;20059;-85
2022/08/23 05:58:38;;;;;;;3.92;1.52;;;22.00;99.90;;;;;;4998557;28;20535;-84
2022/08/23 06:01:05;;;;;;;4.65;2.03;;;22.00;99.90;;;;;;4996039;28;20054;-84
2022/08/23 06:03:31;;;;;;;3.53;1.85;;;22.00;99.90;;;;;;4934278;28;20094;-84
2022/08/23 06:06:01;;;;;;;1.98;1.38;;;22.10;99.90;;;;;;4999818;28;20052;-85
2022/08/23 06:08:27;;;;;;;2.22;1.50;;;22.00;99.90;;;;;;4933973;28;20051;-87
2022/08/23 06:11:04;;;;;;;2.17;1.45;;;22.10;99.90;;;;;;4934806;28;20043;-85
2022/08/23 06:13:30;;;;;;;2.65;1.90;;;22.10;99.90;;;;;;5027551;28;20036;-85
2022/08/23 06:15:57;;;;;;;2.33;1.55;;;22.20;99.90;;;;;;5013199;28;20040;-85
2022/08/23 06:18:25;;;;;;;2.95;1.67;;;22.20;99.90;;;;;;4999873;28;20047;-85
2022/08/23 06:21:03;;;;;;;4.15;2.00;;;22.20;99.90;;;;;;4946702;28;20094;-86
2022/08/23 06:23:29;;;;;;;3.10;2.15;;;22.20;99.90;;;;;;5016212;28;20048;-87
2022/08/23 06:25:55;;;;;;;2.55;1.48;;;22.20;99.90;;;;;;4934937;28;20126;-86
2022/08/23 06:28:21;;;;;;;3.50;1.58;;;22.20;99.90;;;;;;4999402;28;20494;-87
2022/08/23 06:30:48;;;;;;;3.42;1.50;;;22.30;99.90;;;;;;4932823;28;20062;-85
2022/08/23 06:33:13;;;;;;;2.55;1.63;;;22.30;99.90;;;;;;4998286;28;20107;-86
2022/08/23 06:35:40;;;;;;;3.97;1.85;;;22.40;99.90;;;;;;4998129;28;20040;-85
2022/08/23 06:38:07;;;;;;;3.88;1.65;;;22.40;99.90;;;;;;4999559;28;20044;-86
2022/08/23 06:40:36;;;;;;;5.00;1.63;;;22.40;99.90;;;;;;5006813;28;20052;-86
2022/08/23 06:43:03;;;;;;;4.15;1.60;;;22.40;99.90;;;;;;5001022;28;20126;-84
2022/08/23 06:45:29;;;;;;;2.67;1.63;;;22.50;99.90;;;;;;4996575;28;20134;-86
2022/08/23 06:47:55;;;;;;;2.97;1.80;;;22.50;99.90;;;;;;4999277;28;20523;-86
2022/08/23 06:50:21;;;;;;;4.13;1.38;;;22.50;99.90;;;;;;4997059;28;20048;-87
2022/08/23 06:52:49;;;;;;;4.70;1.60;;;22.50;99.90;;;;;;4997914;28;21003;-86
2022/08/23 06:55:15;;;;;;;7.43;1.80;;;22.60;99.90;;;;;;4998406;28;20325;-86
2022/08/23 06:57:41;;;;;;;7.03;2.30;;;22.60;99.90;;;;;;4998938;28;20591;-85
2022/08/23 07:00:09;;;;;;;2.58;1.92;;;22.60;99.90;;;;;;4933325;28;20107;-86
2022/08/23 07:02:36;;;;;;;3.25;1.80;;;22.60;99.90;;;;;;4996912;28;20051;-86
2022/08/23 07:05:03;;;;;;;6.88;1.90;;;22.60;99.90;;;;;;4998070;28;20044;-86
2022/08/23 07:07:29;;;;;;;2.45;1.90;;;22.60;99.90;;;;;;5004503;28;20079;-86
2022/08/23 07:09:55;;;;;;;2.92;1.83;;;22.70;99.90;;;;;;4998891;28;20474;-86
2022/08/23 07:12:21;;;;;;;2.20;1.67;;;22.70;99.90;;;;;;4996824;28;20056;-86
2022/08/23 07:14:49;;;;;;;2.83;1.52;;;22.70;99.90;;;;;;4934271;28;20118;-86
2022/08/23 07:17:15;;;;;;;3.08;1.98;;;22.70;99.90;;;;;;4999066;28;20046;-86
2022/08/23 07:19:43;;;;;;;4.22;2.20;;;22.70;99.90;;;;;;4999296;28;20047;-86
2022/08/23 07:22:09;;;;;;;3.50;1.88;;;22.80;99.90;;;;;;4999114;28;20047;-86
2022/08/23 07:24:36;;;;;;;2.58;1.88;;;22.70;99.90;;;;;;5008946;28;20036;-86
2022/08/23 07:27:08;;;;;;;3.28;2.20;;;22.70;99.90;;;;;;4943290;28;20071;-86
2022/08/23 07:29:38;;;;;;;2.70;1.80;;;22.80;99.90;;;;;;4940246;28;20052;-86
2022/08/23 07:32:05;;;;;;;4.55;2.00;;;22.90;99.90;;;;;;4935890;28;20086;-86
2022/08/23 07:34:31;;;;;;;4.30;2.05;;;22.90;99.90;;;;;;5016995;28;20043;-85
2022/08/23 07:36:57;;;;;;;3.10;2.15;;;22.90;99.90;;;;;;5000576;28;20036;-85
2022/08/23 07:39:23;;;;;;;9.35;2.55;;;23.00;99.90;;;;;;5000421;28;20072;-86
2022/08/23 07:41:49;;;;;;;3.30;2.22;;;23.00;99.90;;;;;;5016438;28;20048;-86
2022/08/23 07:44:16;;;;;;;4.88;2.13;;;23.10;99.90;;;;;;4935467;28;20048;-85
2022/08/23 07:46:43;;;;;;;3.15;1.90;;;23.10;99.90;;;;;;4998604;28;20044;-86
2022/08/23 07:49:10;;;;;;;8.43;2.63;;;23.10;99.90;;;;;;4932647;28;20055;-85
2022/08/23 07:51:37;;;;;;;3.05;1.95;;;23.10;99.90;;;;;;5014956;28;20594;-86
2022/08/23 07:54:06;;;;;;;3.67;2.13;;;23.20;99.90;;;;;;5014476;28;20227;-86
2022/08/23 07:56:34;;;;;;;2.95;1.98;;;23.20;99.90;;;;;;4932507;28;20039;-86
2022/08/23 07:59:00;;;;;;;4.13;1.50;;;23.30;99.90;;;;;;4996229;28;20051;-86
2022/08/23 08:01:28;;;;;;;4.38;2.17;;;23.30;99.90;;;;;;4996730;28;20051;-86
2022/08/23 08:03:57;;;;;;;2.85;1.85;;;23.40;99.90;;;;;;4997191;28;20036;-86
2022/08/23 08:06:23;;;;;;;3.78;2.05;;;23.40;99.90;;;;;;5003563;28;20562;-86
2022/08/23 08:08:49;;;;;;;3.50;2.03;;;23.40;99.90;;;;;;5012497;28;20050;-85
2022/08/23 08:11:19;;;;;;;3.80;2.42;;;23.50;99.90;;;;;;4999851;28;20413;-85
2022/08/23 08:13:46;;;;;;;4.43;2.10;;;23.50;99.90;;;;;;4980128;28;20095;-86
2022/08/23 08:16:33;;;;;;;2.65;1.70;;;23.60;99.90;;;;;;5002133;28;20048;-85
2022/08/23 08:19:02;;;;;;;2.17;1.60;;;23.60;99.90;;;;;;5000996;28;20055;-86
2022/08/23 08:21:28;;;;;;;2.20;1.45;;;23.60;99.90;;;;;;5018343;28;20621;-85
2022/08/23 08:23:54;;;;;;;4.68;1.92;;;23.70;99.90;;;;;;5017410;28;20482;-86
2022/08/23 08:26:21;;;;;;;3.28;1.85;;;23.80;99.90;;;;;;5006903;28;20071;-86
2022/08/23 08:28:47;;;;;;;3.03;1.90;;;23.80;99.90;;;;;;4938390;28;20059;-86
2022/08/23 08:31:13;;;;;;;2.22;1.67;;;23.80;99.90;;;;;;5000545;28;20048;-85
2022/08/23 08:33:40;;;;;;;2.80;1.80;;;23.80;99.90;;;;;;4998699;28;20036;-85
2022/08/23 08:36:07;;;;;;;2.75;1.60;;;23.90;99.90;;;;;;4999740;28;20045;-86
2022/08/23 08:38:36;;;;;;;4.38;1.70;;;23.90;99.90;;;;;;4999672;28;20046;-85
2022/08/23 08:41:12;;;;;;;2.63;1.60;;;23.90;99.90;;;;;;4933591;28;20056;-86
2022/08/23 08:43:52;;;;;;;2.63;1.75;;;24.00;99.90;;;;;;4934277;28;20082;-86
2022/08/23 08:46:23;;;;;;;3.28;2.03;;;24.10;99.90;;;;;;5015786;28;20149;-85
2022/08/23 08:48:54;;;;;;;2.75;2.00;;;24.10;99.90;;;;;;5006017;28;20102;-85
2022/08/23 08:51:50;;;;;;;3.10;1.80;;;24.10;99.90;;;;;;5000940;28;20052;-86
2022/08/23 08:54:20;;;;;;;6.68;2.38;;;24.10;99.90;;;;;;5000370;28;20638;-86
2022/08/23 08:56:50;;;;;;;4.40;1.58;;;24.10;99.90;;;;;;5001244;28;20046;-86
2022/08/23 08:59:26;;;;;;;2.45;1.55;;;24.10;99.90;;;;;;5001163;28;20055;-86
2022/08/23 09:01:53;;;;;;;3.47;1.70;;;24.20;99.90;;;;;;4998507;28;20130;-85
2022/08/23 09:04:21;;;;;;;3.83;1.90;;;24.20;99.90;;;;;;4999411;28;20036;-86
2022/08/23 09:07:10;;;;;;;3.25;2.08;;;24.20;99.90;;;;;;4936264;28;20060;-85
2022/08/23 09:09:41;;;;;;;2.80;1.95;;;24.40;99.90;;;;;;5000397;28;20876;-86
2022/08/23 09:12:48;;;;;;;4.57;2.17;;;24.40;99.90;;;;;;5016317;28;20059;-86
2022/08/23 09:15:33;;;;;;;4.15;2.00;;;24.50;99.90;;;;;;4980802;28;20052;-86
2022/08/23 09:18:18;;;;;;;2.95;2.67;;;24.60;99.90;;;;;;4932465;28;20526;-85
2022/08/23 09:20:47;;;;;;;3.42;2.30;;;24.60;99.90;;;;;;5001029;28;20047;-86
2022/08/23 09:23:30;;;;;;;3.33;1.95;;;24.50;99.90;;;;;;5000337;28;20059;-85
2022/08/23 09:25:59;;;;;;;2.60;1.60;;;24.50;99.90;;;;;;4934345;28;20079;-85
2022/08/23 09:28:29;;;;;;;4.10;2.20;;;24.50;99.90;;;;;;5017235;28;20043;-86
2022/08/23 09:30:57;;;;;;;3.60;2.30;;;24.60;99.90;;;;;;5000086;28;20122;-86
2022/08/23 09:33:26;;;;;;;3.17;2.33;;;24.50;99.90;;;;;;4999762;28;20050;-85
2022/08/23 09:36:14;;;;;;;3.20;1.83;;;24.50;99.90;;;;;;4999156;28;20044;-86
2022/08/23 09:38:51;;;;;;;2.92;2.05;;;24.50;99.90;;;;;;4935911;28;20041;-86
2022/08/23 09:41:21;;;;;;;5.57;2.22;;;24.40;99.90;;;;;;5014268;28;20531;-86
2022/08/23 09:43:47;;;;;;;3.35;1.92;;;24.40;99.90;;;;;;4999086;28;20098;-86
2022/08/23 09:46:27;;;;;;;2.65;1.67;;;24.50;99.90;;;;;;4933807;28;20836;-87
2022/08/23 09:48:54;;;;;;;3.67;1.85;;;24.50;99.90;;;;;;4998440;28;20052;-86
2022/08/23 09:51:29;;;;;;;3.67;2.35;;;24.60;99.90;;;;;;4999135;28;20051;-86
2022/08/23 09:54:10;;;;;;;2.40;1.40;;;24.70;99.90;;;;;;4999155;28;20040;-86
2022/08/23 09:56:59;;;;;;;1.92;1.55;;;24.70;99.90;;;;;;4932949;28;20526;-86
2022/08/23 09:59:25;;;;;;;1.45;1.05;;;24.70;99.90;;;;;;4999702;28;20054;-86
2022/08/23 10:01:57;;;;;;;2.22;1.60;;;24.70;99.90;;;;;;5016150;28;20492;-85
2022/08/23 10:04:28;;;;;;;2.85;1.75;;;24.70;99.90;;;;;;4935471;28;20051;-86
2022/08/23 10:06:55;;;;;;;4.35;1.35;;;24.70;99.90;;;;;;4932863;28;20079;-87
2022/08/23 10:09:30;;;;;;;3.60;2.05;;;24.80;99.90;;;;;;4999319;28;20040;-86
2022/08/23 10:11:58;;;;;;;2.28;1.90;;;25.00;99.90;;;;;;4997685;28;20491;-86
2022/08/23 10:14:25;;;;;;;1.67;1.02;;;25.10;99.90;;;;;;5001657;28;20048;-85
2022/08/23 10:16:54;;;;;;;1.52;1.20;;;25.20;99.90;;;;;;5001160;28;20043;-86
2022/08/23 10:19:33;;;;;;;2.22;1.10;;;25.30;99.90;;;;;;4934229;28;20534;-86
2022/08/23 10:22:17;;;;;;;3.58;1.40;;;25.50;99.90;;;;;;5000060;28;20050;-86
2022/08/23 10:24:49;;;;;;;2.08;1.42;;;25.50;99.90;;;;;;5001916;28;20043;-86
2022/08/23 10:30:19;;;;;;;3.33;1.60;;;25.60;99.90;;;;;;4936959;28;20138;-86
2022/08/23 10:33:00;;;;;;;3.45;1.35;;;25.70;99.90;;;;;;5019855;28;20048;-86
2022/08/23 10:35:34;;;;;;;3.90;1.55;;;25.80;99.90;;;;;;5019780;28;20048;-86
2022/08/23 10:38:18;;;;;;;4.57;1.40;;;25.90;99.90;;;;;;5007080;28;20047;-86
2022/08/23 10:40:58;;;;;;;2.15;1.30;;;25.90;99.90;;;;;;4936347;28;20039;-86
2022/08/23 10:43:55;;;;;;;2.50;1.17;;;25.90;99.90;;;;;;5016257;28;20091;-86
2022/08/23 10:46:22;;;;;;;1.77;1.27;;;25.80;99.90;;;;;;5015057;28;20051;-86
2022/08/23 10:48:58;;;;;;;1.77;1.10;;;25.80;99.90;;;;;;4999230;28;21244;-86
2022/08/23 10:51:32;;;;;;;2.42;1.30;;;25.80;99.90;;;;;;4998161;28;20183;-86
2022/08/23 10:54:05;;;;;;;1.27;1.00;;;25.90;99.90;;;;;;4999593;28;20541;-86
2022/08/23 10:56:31;;;;;;;3.90;1.10;;;26.10;99.90;;;;;;4934268;28;20098;-86
2022/08/23 10:59:02;;;;;;;1.27;1.02;;;26.20;99.90;;;;;;5001279;28;20155;-86
2022/08/23 11:01:39;;;;;;;2.83;1.10;;;26.30;99.90;;;;;;4997604;28;20046;-86
2022/08/23 11:04:18;;;;;;;1.73;1.20;;;26.40;99.90;;;;;;5000603;28;20591;-86
2022/08/23 11:06:54;;;;;;;2.03;1.02;;;26.50;99.90;;;;;;5015126;28;20074;-86
2022/08/23 11:09:20;;;;;;;0.80;0.80;;;26.50;99.90;;;;;;4997926;28;20090;-86
2022/08/23 11:11:59;;;;;;;1.55;1.00;;;26.60;99.90;;;;;;5015649;28;20249;-86
2022/08/23 11:14:37;;;;;;;2.75;1.13;;;26.50;99.90;;;;;;5013699;28;20043;-86
2022/08/23 11:17:10;;;;;;;1.10;0.90;;;26.60;99.90;;;;;;4997278;28;20125;-85
2022/08/23 11:20:08;;;;;;;1.42;1.02;;;26.60;99.90;;;;;;4998010;28;20059;-87
2022/08/23 11:22:56;;;;;;;1.55;1.20;;;26.60;99.90;;;;;;4986574;28;20159;-86
2022/08/23 11:25:22;;;;;;;1.88;1.00;;;26.70;99.90;;;;;;4999340;28;20044;-86
2022/08/23 11:27:48;;;;;;;2.75;1.27;;;26.60;99.90;;;;;;4929882;28;20592;-85
2022/08/23 11:30:35;;;;;;;2.63;1.10;;;26.70;99.90;;;;;;5003149;28;20052;-86
2022/08/23 11:33:45;;;;;;;1.23;0.85;;;26.70;99.90;;;;;;4933161;28;20051;-86
2022/08/23 11:36:16;;;;;;;1.15;1.02;;;26.70;99.90;;;;;;4956077;28;20637;-85
2022/08/23 11:38:48;;;;;;;1.27;1.10;;;26.80;99.90;;;;;;4956318;28;20668;-86
2022/08/23 11:41:23;;;;;;;1.50;1.10;;;26.80;99.90;;;;;;4977497;28;20122;-86
2022/08/23 11:44:12;;;;;;;1.25;1.00;;;26.90;99.90;;;;;;5003426;28;20909;-90
2022/08/23 11:46:54;;;;;;;2.97;0.82;;;27.00;99.90;;;;;;4997326;28;20059;-89
2022/08/23 11:49:29;;;;;;;2.63;1.35;;;27.00;99.90;;;;;;5023159;28;20527;-89
2022/08/23 11:52:52;;;;;;;1.38;0.90;;;27.00;99.90;;;;;;5003540;28;20048;-89
2022/08/23 11:55:52;;;;;;;1.15;1.02;;;27.00;99.90;;;;;;4961829;28;20907;-88
2022/08/23 11:58:56;;;;;;;3.42;1.20;;;27.10;99.90;;;;;;4940838;28;20046;-89
2022/08/23 12:01:38;;;;;;;1.35;0.82;;;27.10;99.90;;;;;;5003561;28;20050;-89
2022/08/23 12:04:26;;;;;;;1.58;1.33;;;27.00;99.90;;;;;;5018843;28;20050;-89
2022/08/23 12:07:00;;;;;;;1.70;1.27;;;26.90;99.90;;;;;;4939751;28;20057;-88
2022/08/23 12:09:26;;;;;;;4.47;1.40;;;26.70;99.90;;;;;;5002726;28;20043;-89
2022/08/23 12:11:55;;;;;;;1.95;1.30;;;26.70;99.90;;;;;;5020235;28;20122;-89
2022/08/23 12:14:30;;;;;;;2.45;1.27;;;26.80;99.90;;;;;;5019276;28;20055;-89
2022/08/23 12:16:58;;;;;;;1.25;0.90;;;27.00;99.90;;;;;;5007929;28;20507;-89
2022/08/23 12:19:45;;;;;;;1.95;1.40;;;27.20;99.90;;;;;;5002234;28;20051;-89
2022/08/23 12:22:18;;;;;;;1.67;1.00;;;27.20;99.90;;;;;;5008952;28;20040;-89
2022/08/23 12:25:02;;;;;;;2.00;1.30;;;27.20;99.90;;;;;;4936332;28;20107;-90
2022/08/23 12:27:44;;;;;;;2.47;1.40;;;27.20;99.90;;;;;;5023811;28;20040;-89
2022/08/23 12:30:32;;;;;;;2.28;1.27;;;27.20;99.90;;;;;;5004368;28;20044;-89
2022/08/23 12:33:44;;;;;;;1.05;0.88;;;27.10;99.90;;;;;;5011898;28;20059;-89
2022/08/23 12:36:28;;;;;;;0.82;0.80;;;27.20;99.90;;;;;;4988369;28;20079;-89
2022/08/23 12:39:28;;;;;;;1.35;0.90;;;27.20;99.90;;;;;;5009104;28;20036;-89
2022/08/23 12:42:04;;;;;;;0.77;0.70;;;27.30;99.90;;;;;;5004208;28;20064;-90
2022/08/23 12:44:30;;;;;;;2.83;1.42;;;27.30;99.90;;;;;;4936633;28;20925;-89
2022/08/23 12:47:13;;;;;;;1.38;0.88;;;27.20;99.90;;;;;;5003345;28;20040;-89
2022/08/23 12:49:39;;;;;;;1.15;0.80;;;27.10;99.90;;;;;;4935335;28;20103;-89
2022/08/23 12:52:08;;;;;;;1.25;0.80;;;27.00;99.90;;;;;;4995920;28;20122;-89
2022/08/23 12:54:40;;;;;;;0.60;0.60;;;27.00;99.90;;;;;;5000447;28;20044;-88
2022/08/23 12:57:14;;;;;;;1.30;0.90;;;27.10;99.90;;;;;;5002513;28;20039;-89
2022/08/23 12:59:43;;;;;;;0.60;0.60;;;27.10;99.90;;;;;;5002122;28;20056;-88
2022/08/23 13:02:31;;;;;;;0.73;0.70;;;27.20;99.90;;;;;;5017043;28;20576;-89
2022/08/23 13:05:05;;;;;;;0.65;0.65;;;27.30;99.90;;;;;;4937911;28;20561;-89
2022/08/23 13:07:31;;;;;;;0.50;0.50;;;27.40;99.90;;;;;;4937016;28;20106;-89
2022/08/23 13:09:57;;;;;;;0.70;0.70;;;27.40;99.90;;;;;;5003165;28;20047;-88
2022/08/23 13:12:24;;;;;;;1.27;0.75;;;27.30;99.90;;;;;;5002521;28;20051;-88
2022/08/23 13:14:52;;;;;;;1.45;0.75;;;27.30;99.90;;;;;;5006740;28;20048;-90
2022/08/23 13:17:30;;;;;;;0.88;0.73;;;27.50;99.90;;;;;;4936262;28;20138;-90